sensor_id;sensor_type;location;lat;lon;timestamp;pressure;altitude;pressure_sealevel;temperature;humidity
17593;BME280;8915;51.760;14.300;2023-12-04T00:01:03;101657.66;;;-6.36;100.00
17593;BME280;8915;51.760;14.300;2023-12-04T00:03:29;101652.09;;;-6.40;100.00
17593;BME280;8915;51.760;14.300;2023-12-04T00:05:56;101641.00;;;-6.40;100.00
17593;BME280;8915;51.760;14.300;2023-12-04T00:08:22;101636.88;;;-6.41;100.00
17593;BME280;8915;51.760;14.300;2023-12-04T00:10:48;101636.69;;;-6.40;100.00
17593;BME280;8915;51.760;14.300;2023-12-04T00:13:17;101631.53;;;-6.40;100.00
17593;BME280;8915;51.760;14.300;2023-12-04T00:15:44;101631.31;;;-6.45;100.00
17593;BME280;8915;51.760;14.300;2023-12-04T00:18:11;101630.47;;;-6.52;100.00
17593;BME280;8915;51.760;14.300;2023-12-04T00:20:38;101624.16;;;-6.49;100.00
17593;BME280;8915;51.760;14.300;2023-12-04T00:23:04;101626.19;;;-6.45;100.00
17593;BME280;8915;51.760;14.300;2023-12-04T00:25:31;101627.53;;;-6.49;100.00
17593;BME280;8915;51.760;14.300;2023-12-04T00:27:57;101619.63;;;-6.47;100.00
17593;BME280;8915;51.760;14.300;2023-12-04T00:30:23;101622.97;;;-6.53;100.00
17593;BME280;8915;51.760;14.300;2023-12-04T00:32:50;101619.25;;;-6.44;100.00
17593;BME280;8915;51.760;14.300;2023-12-04T00:35:17;101620.41;;;-6.53;100.00
17593;BME280;8915;51.760;14.300;2023-12-04T00:37:44;101621.75;;;-6.57;100.00
17593;BME280;8915;51.760;14.300;2023-12-04T00:40:10;101625.31;;;-6.58;100.00
17593;BME280;8915;51.760;14.300;2023-12-04T00:42:37;101623.28;;;-6.63;100.00
17593;BME280;8915;51.760;14.300;2023-12-04T00:45:04;101624.44;;;-6.65;100.00
17593;BME280;8915;51.760;14.300;2023-12-04T00:47:30;101629.19;;;-6.69;100.00
17593;BME280;8915;51.760;14.300;2023-12-04T00:49:56;101628.19;;;-6.68;100.00
17593;BME280;8915;51.760;14.300;2023-12-04T00:52:24;101633.31;;;-6.74;100.00
17593;BME280;8915;51.760;14.300;2023-12-04T00:54:50;101635.44;;;-6.78;100.00
17593;BME280;8915;51.760;14.300;2023-12-04T00:57:17;101641.38;;;-6.77;100.00
17593;BME280;8915;51.760;14.300;2023-12-04T00:59:43;101637.63;;;-6.75;100.00
17593;BME280;8915;51.760;14.300;2023-12-04T01:02:09;101641.19;;;-6.76;100.00
17593;BME280;8915;51.760;14.300;2023-12-04T01:04:36;101633.25;;;-6.81;100.00
17593;BME280;8915;51.760;14.300;2023-12-04T01:07:05;101637.75;;;-6.83;100.00
17593;BME280;8915;51.760;14.300;2023-12-04T01:09:35;101638.16;;;-6.86;100.00
17593;BME280;8915;51.760;14.300;2023-12-04T01:12:04;101640.09;;;-6.88;100.00
17593;BME280;8915;51.760;14.300;2023-12-04T01:14:30;101644.06;;;-6.85;100.00
17593;BME280;8915;51.760;14.300;2023-12-04T01:16:58;101638.31;;;-6.87;100.00
17593;BME280;8915;51.760;14.300;2023-12-04T01:19:24;101626.28;;;-6.87;100.00
17593;BME280;8915;51.760;14.300;2023-12-04T01:21:50;101631.44;;;-6.87;100.00
17593;BME280;8915;51.760;14.300;2023-12-04T01:24:18;101627.06;;;-6.86;100.00
17593;BME280;8915;51.760;14.300;2023-12-04T01:26:46;101632.03;;;-6.85;100.00
17593;BME280;8915;51.760;14.300;2023-12-04T01:29:12;101627.94;;;-6.79;100.00
17593;BME280;8915;51.760;14.300;2023-12-04T01:31:38;101627.31;;;-6.81;100.00
17593;BME280;8915;51.760;14.300;2023-12-04T01:34:05;101634.03;;;-6.80;100.00
17593;BME280;8915;51.760;14.300;2023-12-04T01:36:32;101629.09;;;-6.82;100.00
17593;BME280;8915;51.760;14.300;2023-12-04T01:38:59;101633.47;;;-6.76;100.00
17593;BME280;8915;51.760;14.300;2023-12-04T01:41:25;101631.66;;;-6.82;100.00
17593;BME280;8915;51.760;14.300;2023-12-04T01:43:53;101632.03;;;-6.85;100.00
17593;BME280;8915;51.760;14.300;2023-12-04T01:46:19;101625.53;;;-6.81;100.00
17593;BME280;8915;51.760;14.300;2023-12-04T01:48:46;101616.81;;;-6.86;100.00
17593;BME280;8915;51.760;14.300;2023-12-04T01:51:13;101616.69;;;-6.78;100.00
17593;BME280;8915;51.760;14.300;2023-12-04T01:53:41;101611.72;;;-6.80;100.00
17593;BME280;8915;51.760;14.300;2023-12-04T01:56:09;101606.00;;;-6.82;100.00
17593;BME280;8915;51.760;14.300;2023-12-04T01:58:36;101613.47;;;-6.87;100.00
17593;BME280;8915;51.760;14.300;2023-12-04T02:01:05;101610.69;;;-6.85;100.00
17593;BME280;8915;51.760;14.300;2023-12-04T02:03:32;101610.50;;;-6.84;100.00
17593;BME280;8915;51.760;14.300;2023-12-04T02:05:59;101609.50;;;-6.89;100.00
17593;BME280;8915;51.760;14.300;2023-12-04T02:08:28;101613.63;;;-6.88;100.00
17593;BME280;8915;51.760;14.300;2023-12-04T02:10:54;101606.34;;;-6.85;100.00
17593;BME280;8915;51.760;14.300;2023-12-04T02:13:21;101602.81;;;-6.84;100.00
17593;BME280;8915;51.760;14.300;2023-12-04T02:15:49;101594.56;;;-6.79;100.00
17593;BME280;8915;51.760;14.300;2023-12-04T02:18:19;101587.22;;;-6.82;100.00
17593;BME280;8915;51.760;14.300;2023-12-04T02:20:47;101587.78;;;-6.87;100.00
17593;BME280;8915;51.760;14.300;2023-12-04T02:23:13;101584.00;;;-6.91;100.00
17593;BME280;8915;51.760;14.300;2023-12-04T02:25:41;101584.78;;;-6.90;100.00
17593;BME280;8915;51.760;14.300;2023-12-04T02:28:11;101581.28;;;-6.83;100.00
17593;BME280;8915;51.760;14.300;2023-12-04T02:30:40;101580.09;;;-6.87;100.00
17593;BME280;8915;51.760;14.300;2023-12-04T02:33:10;101586.19;;;-6.88;100.00
17593;BME280;8915;51.760;14.300;2023-12-04T02:35:39;101585.75;;;-6.91;100.00
17593;BME280;8915;51.760;14.300;2023-12-04T02:38:06;101588.72;;;-6.94;100.00
17593;BME280;8915;51.760;14.300;2023-12-04T02:40:33;101589.25;;;-6.99;100.00
17593;BME280;8915;51.760;14.300;2023-12-04T02:43:02;101607.22;;;-6.99;100.00
17593;BME280;8915;51.760;14.300;2023-12-04T02:45:28;101594.78;;;-7.02;100.00
17593;BME280;8915;51.760;14.300;2023-12-04T02:47:54;101586.66;;;-7.05;100.00
17593;BME280;8915;51.760;14.300;2023-12-04T02:50:21;101588.25;;;-7.04;100.00
17593;BME280;8915;51.760;14.300;2023-12-04T02:52:47;101581.91;;;-7.08;100.00
17593;BME280;8915;51.760;14.300;2023-12-04T02:55:13;101581.91;;;-7.08;100.00
17593;BME280;8915;51.760;14.300;2023-12-04T02:57:40;101582.69;;;-7.08;100.00
17593;BME280;8915;51.760;14.300;2023-12-04T03:00:08;101584.88;;;-7.05;100.00
17593;BME280;8915;51.760;14.300;2023-12-04T03:02:35;101589.66;;;-7.02;100.00
17593;BME280;8915;51.760;14.300;2023-12-04T03:05:02;101586.94;;;-6.94;100.00
17593;BME280;8915;51.760;14.300;2023-12-04T03:07:28;101580.63;;;-6.91;100.00
17593;BME280;8915;51.760;14.300;2023-12-04T03:09:54;101575.72;;;-6.93;100.00
17593;BME280;8915;51.760;14.300;2023-12-04T03:12:21;101568.13;;;-7.01;100.00
17593;BME280;8915;51.760;14.300;2023-12-04T03:14:47;101562.59;;;-7.04;100.00
17593;BME280;8915;51.760;14.300;2023-12-04T03:17:15;101562.19;;;-7.01;100.00
17593;BME280;8915;51.760;14.300;2023-12-04T03:19:41;101555.31;;;-7.01;100.00
17593;BME280;8915;51.760;14.300;2023-12-04T03:22:08;101553.91;;;-7.03;100.00
17593;BME280;8915;51.760;14.300;2023-12-04T03:24:34;101566.13;;;-7.05;100.00
17593;BME280;8915;51.760;14.300;2023-12-04T03:27:00;101553.31;;;-7.05;100.00
17593;BME280;8915;51.760;14.300;2023-12-04T03:29:27;101548.44;;;-6.94;100.00
17593;BME280;8915;51.760;14.300;2023-12-04T03:31:53;101550.47;;;-6.83;100.00
17593;BME280;8915;51.760;14.300;2023-12-04T03:34:21;101542.75;;;-6.89;100.00
17593;BME280;8915;51.760;14.300;2023-12-04T03:36:47;101539.97;;;-6.88;100.00
17593;BME280;8915;51.760;14.300;2023-12-04T03:39:14;101536.44;;;-6.87;100.00
17593;BME280;8915;51.760;14.300;2023-12-04T03:41:40;101529.91;;;-6.89;100.00
17593;BME280;8915;51.760;14.300;2023-12-04T03:44:06;101527.56;;;-6.84;100.00
17593;BME280;8915;51.760;14.300;2023-12-04T03:46:33;101539.47;;;-6.77;100.00
17593;BME280;8915;51.760;14.300;2023-12-04T03:48:59;101532.41;;;-6.68;100.00
17593;BME280;8915;51.760;14.300;2023-12-04T03:51:27;101528.06;;;-6.61;100.00
17593;BME280;8915;51.760;14.300;2023-12-04T03:53:53;101535.41;;;-6.58;100.00
17593;BME280;8915;51.760;14.300;2023-12-04T03:56:19;101522.56;;;-6.52;100.00
17593;BME280;8915;51.760;14.300;2023-12-04T03:58:46;101519.81;;;-6.50;100.00
17593;BME280;8915;51.760;14.300;2023-12-04T04:01:12;101516.88;;;-6.47;100.00
17593;BME280;8915;51.760;14.300;2023-12-04T04:03:38;101506.81;;;-6.49;100.00
17593;BME280;8915;51.760;14.300;2023-12-04T04:06:05;101511.16;;;-6.43;100.00
17593;BME280;8915;51.760;14.300;2023-12-04T04:08:33;101511.19;;;-6.36;100.00
17593;BME280;8915;51.760;14.300;2023-12-04T04:10:59;101505.88;;;-6.35;100.00
17593;BME280;8915;51.760;14.300;2023-12-04T04:13:26;101508.25;;;-6.33;100.00
17593;BME280;8915;51.760;14.300;2023-12-04T04:15:52;101510.59;;;-6.32;100.00
17593;BME280;8915;51.760;14.300;2023-12-04T04:18:18;101509.25;;;-6.28;100.00
17593;BME280;8915;51.760;14.300;2023-12-04T04:20:45;101507.06;;;-6.24;100.00
17593;BME280;8915;51.760;14.300;2023-12-04T04:23:11;101504.31;;;-6.23;100.00
17593;BME280;8915;51.760;14.300;2023-12-04T04:25:39;101496.03;;;-6.25;100.00
17593;BME280;8915;51.760;14.300;2023-12-04T04:28:05;101501.75;;;-6.23;100.00
17593;BME280;8915;51.760;14.300;2023-12-04T04:30:31;101502.75;;;-6.17;100.00
17593;BME280;8915;51.760;14.300;2023-12-04T04:32:58;101495.25;;;-6.12;100.00
17593;BME280;8915;51.760;14.300;2023-12-04T04:35:24;101495.03;;;-6.11;100.00
17593;BME280;8915;51.760;14.300;2023-12-04T04:37:50;101495.44;;;-6.14;100.00
17593;BME280;8915;51.760;14.300;2023-12-04T04:40:17;101484.00;;;-6.11;100.00
17593;BME280;8915;51.760;14.300;2023-12-04T04:42:44;101493.06;;;-6.15;100.00
17593;BME280;8915;51.760;14.300;2023-12-04T04:45:11;101485.34;;;-6.22;100.00
17593;BME280;8915;51.760;14.300;2023-12-04T04:47:37;101484.75;;;-6.24;100.00
17593;BME280;8915;51.760;14.300;2023-12-04T04:50:04;101481.38;;;-6.24;100.00
17593;BME280;8915;51.760;14.300;2023-12-04T04:52:30;101468.94;;;-6.21;100.00
17593;BME280;8915;51.760;14.300;2023-12-04T04:54:57;101480.38;;;-6.23;100.00
17593;BME280;8915;51.760;14.300;2023-12-04T04:57:23;101477.63;;;-6.22;100.00
17593;BME280;8915;51.760;14.300;2023-12-04T04:59:51;101471.13;;;-6.18;100.00
17593;BME280;8915;51.760;14.300;2023-12-04T05:02:17;101475.28;;;-6.17;100.00
17593;BME280;8915;51.760;14.300;2023-12-04T05:04:43;101473.53;;;-6.10;100.00
17593;BME280;8915;51.760;14.300;2023-12-04T05:07:09;101472.13;;;-6.06;100.00
17593;BME280;8915;51.760;14.300;2023-12-04T05:09:36;101475.50;;;-5.99;100.00
17593;BME280;8915;51.760;14.300;2023-12-04T05:12:03;101477.88;;;-5.97;100.00
17593;BME280;8915;51.760;14.300;2023-12-04T05:14:29;101476.69;;;-5.88;100.00
17593;BME280;8915;51.760;14.300;2023-12-04T05:16:57;101476.50;;;-5.87;100.00
17593;BME280;8915;51.760;14.300;2023-12-04T05:19:23;101468.19;;;-5.82;100.00
17593;BME280;8915;51.760;14.300;2023-12-04T05:21:50;101464.44;;;-5.80;100.00
17593;BME280;8915;51.760;14.300;2023-12-04T05:24:16;101472.38;;;-5.81;100.00
17593;BME280;8915;51.760;14.300;2023-12-04T05:26:43;101471.38;;;-5.80;100.00
17593;BME280;8915;51.760;14.300;2023-12-04T05:29:09;101467.19;;;-5.75;100.00
17593;BME280;8915;51.760;14.300;2023-12-04T05:31:35;101464.03;;;-5.70;100.00
17593;BME280;8915;51.760;14.300;2023-12-04T05:34:03;101467.00;;;-5.67;100.00
17593;BME280;8915;51.760;14.300;2023-12-04T05:36:29;101466.38;;;-5.62;100.00
17593;BME280;8915;51.760;14.300;2023-12-04T05:38:56;101461.84;;;-5.60;100.00
17593;BME280;8915;51.760;14.300;2023-12-04T05:41:22;101466.78;;;-5.59;100.00
17593;BME280;8915;51.760;14.300;2023-12-04T05:43:48;101469.16;;;-5.57;100.00
17593;BME280;8915;51.760;14.300;2023-12-04T05:46:15;101456.91;;;-5.55;100.00
17593;BME280;8915;51.760;14.300;2023-12-04T05:48:42;101462.44;;;-5.52;100.00
17593;BME280;8915;51.760;14.300;2023-12-04T05:51:11;101449.16;;;-5.49;100.00
17593;BME280;8915;51.760;14.300;2023-12-04T05:53:37;101449.78;;;-5.47;100.00
17593;BME280;8915;51.760;14.300;2023-12-04T05:56:05;101444.22;;;-5.44;100.00
17593;BME280;8915;51.760;14.300;2023-12-04T05:58:31;101438.09;;;-5.43;100.00
17593;BME280;8915;51.760;14.300;2023-12-04T06:00:57;101436.88;;;-5.40;100.00
17593;BME280;8915;51.760;14.300;2023-12-04T06:03:24;101445.41;;;-5.40;100.00
17593;BME280;8915;51.760;14.300;2023-12-04T06:05:50;101437.06;;;-5.35;100.00
17593;BME280;8915;51.760;14.300;2023-12-04T06:08:18;101440.63;;;-5.36;100.00
17593;BME280;8915;51.760;14.300;2023-12-04T06:10:45;101433.72;;;-5.36;100.00
17593;BME280;8915;51.760;14.300;2023-12-04T06:13:12;101441.25;;;-5.34;100.00
17593;BME280;8915;51.760;14.300;2023-12-04T06:15:38;101441.81;;;-5.32;100.00
17593;BME280;8915;51.760;14.300;2023-12-04T06:18:04;101439.25;;;-5.32;100.00
17593;BME280;8915;51.760;14.300;2023-12-04T06:20:31;101435.09;;;-5.27;100.00
17593;BME280;8915;51.760;14.300;2023-12-04T06:22:58;101442.59;;;-5.25;100.00
17593;BME280;8915;51.760;14.300;2023-12-04T06:25:26;101437.44;;;-5.25;100.00
17593;BME280;8915;51.760;14.300;2023-12-04T06:27:53;101443.97;;;-5.23;100.00
17593;BME280;8915;51.760;14.300;2023-12-04T06:30:20;101431.09;;;-5.23;100.00
17593;BME280;8915;51.760;14.300;2023-12-04T06:32:47;101435.06;;;-5.20;100.00
17593;BME280;8915;51.760;14.300;2023-12-04T06:35:14;101436.44;;;-5.18;100.00
17593;BME280;8915;51.760;14.300;2023-12-04T06:37:43;101434.88;;;-5.12;100.00
17593;BME280;8915;51.760;14.300;2023-12-04T06:40:10;101427.13;;;-5.06;100.00
17593;BME280;8915;51.760;14.300;2023-12-04T06:42:38;101428.09;;;-5.00;100.00
17593;BME280;8915;51.760;14.300;2023-12-04T06:45:07;101423.91;;;-4.95;100.00
17593;BME280;8915;51.760;14.300;2023-12-04T06:47:34;101431.03;;;-4.90;100.00
17593;BME280;8915;51.760;14.300;2023-12-04T06:50:00;101417.13;;;-4.83;100.00
17593;BME280;8915;51.760;14.300;2023-12-04T06:52:27;101425.59;;;-4.76;100.00
17593;BME280;8915;51.760;14.300;2023-12-04T06:54:53;101427.59;;;-4.71;100.00
17593;BME280;8915;51.760;14.300;2023-12-04T06:57:19;101421.97;;;-4.62;100.00
17593;BME280;8915;51.760;14.300;2023-12-04T06:59:48;101420.38;;;-4.56;100.00
17593;BME280;8915;51.760;14.300;2023-12-04T07:02:14;101419.75;;;-4.52;100.00
17593;BME280;8915;51.760;14.300;2023-12-04T07:04:40;101419.53;;;-4.44;100.00
17593;BME280;8915;51.760;14.300;2023-12-04T07:07:07;101412.94;;;-4.40;100.00
17593;BME280;8915;51.760;14.300;2023-12-04T07:09:33;101407.19;;;-4.35;100.00
17593;BME280;8915;51.760;14.300;2023-12-04T07:12:00;101409.72;;;-4.29;100.00
17593;BME280;8915;51.760;14.300;2023-12-04T07:14:27;101401.56;;;-4.26;100.00
17593;BME280;8915;51.760;14.300;2023-12-04T07:16:55;101407.88;;;-4.22;100.00
17593;BME280;8915;51.760;14.300;2023-12-04T07:19:21;101402.09;;;-4.17;100.00
17593;BME280;8915;51.760;14.300;2023-12-04T07:21:48;101404.06;;;-4.13;100.00
17593;BME280;8915;51.760;14.300;2023-12-04T07:24:15;101394.88;;;-4.09;100.00
17593;BME280;8915;51.760;14.300;2023-12-04T07:26:41;101400.19;;;-4.04;100.00
17593;BME280;8915;51.760;14.300;2023-12-04T07:29:07;101398.78;;;-4.00;100.00
17593;BME280;8915;51.760;14.300;2023-12-04T07:31:34;101400.53;;;-3.94;100.00
17593;BME280;8915;51.760;14.300;2023-12-04T07:34:02;101403.47;;;-3.90;100.00
17593;BME280;8915;51.760;14.300;2023-12-04T07:36:28;101402.06;;;-3.86;100.00
17593;BME280;8915;51.760;14.300;2023-12-04T07:38:55;101398.06;;;-3.82;100.00
17593;BME280;8915;51.760;14.300;2023-12-04T07:41:21;101399.22;;;-3.78;100.00
17593;BME280;8915;51.760;14.300;2023-12-04T07:43:48;101398.56;;;-3.74;100.00
17593;BME280;8915;51.760;14.300;2023-12-04T07:46:14;101387.63;;;-3.69;100.00
17593;BME280;8915;51.760;14.300;2023-12-04T07:48:41;101391.59;;;-3.67;100.00
17593;BME280;8915;51.760;14.300;2023-12-04T07:51:10;101390.13;;;-3.63;100.00
17593;BME280;8915;51.760;14.300;2023-12-04T07:53:36;101390.50;;;-3.59;100.00
17593;BME280;8915;51.760;14.300;2023-12-04T07:56:03;101389.88;;;-3.55;100.00
17593;BME280;8915;51.760;14.300;2023-12-04T07:58:30;101386.06;;;-3.52;100.00
17593;BME280;8915;51.760;14.300;2023-12-04T08:00:56;101387.44;;;-3.50;100.00
17593;BME280;8915;51.760;14.300;2023-12-04T08:03:23;101379.84;;;-3.45;100.00
17593;BME280;8915;51.760;14.300;2023-12-04T08:05:49;101378.63;;;-3.42;100.00
17593;BME280;8915;51.760;14.300;2023-12-04T08:08:17;101383.94;;;-3.37;100.00
17593;BME280;8915;51.760;14.300;2023-12-04T08:10:43;101384.09;;;-3.32;100.00
17593;BME280;8915;51.760;14.300;2023-12-04T08:13:10;101383.44;;;-3.28;100.00
17593;BME280;8915;51.760;14.300;2023-12-04T08:15:36;101383.56;;;-3.23;100.00
17593;BME280;8915;51.760;14.300;2023-12-04T08:18:03;101380.34;;;-3.18;100.00
17593;BME280;8915;51.760;14.300;2023-12-04T08:20:29;101377.69;;;-3.12;100.00
17593;BME280;8915;51.760;14.300;2023-12-04T08:22:55;101383.78;;;-3.06;100.00
17593;BME280;8915;51.760;14.300;2023-12-04T08:25:23;101376.19;;;-3.01;100.00
17593;BME280;8915;51.760;14.300;2023-12-04T08:27:49;101375.09;;;-2.94;100.00
17593;BME280;8915;51.760;14.300;2023-12-04T08:30:16;101377.00;;;-2.89;100.00
17593;BME280;8915;51.760;14.300;2023-12-04T08:32:43;101384.09;;;-2.85;100.00
17593;BME280;8915;51.760;14.300;2023-12-04T08:35:09;101370.34;;;-2.79;100.00
17593;BME280;8915;51.760;14.300;2023-12-04T08:37:35;101370.69;;;-2.75;100.00
17593;BME280;8915;51.760;14.300;2023-12-04T08:40:02;101378.56;;;-2.70;100.00
17593;BME280;8915;51.760;14.300;2023-12-04T08:42:30;101365.78;;;-2.65;100.00
17593;BME280;8915;51.760;14.300;2023-12-04T08:44:56;101364.09;;;-2.60;100.00
17593;BME280;8915;51.760;14.300;2023-12-04T08:47:23;101356.69;;;-2.56;100.00
17593;BME280;8915;51.760;14.300;2023-12-04T08:49:49;101356.81;;;-2.51;100.00
17593;BME280;8915;51.760;14.300;2023-12-04T08:52:15;101366.50;;;-2.47;100.00
17593;BME280;8915;51.760;14.300;2023-12-04T08:54:42;101359.91;;;-2.43;100.00
17593;BME280;8915;51.760;14.300;2023-12-04T08:57:08;101365.97;;;-2.37;100.00
17593;BME280;8915;51.760;14.300;2023-12-04T08:59:36;101365.28;;;-2.33;100.00
17593;BME280;8915;51.760;14.300;2023-12-04T09:02:03;101368.25;;;-2.29;100.00
17593;BME280;8915;51.760;14.300;2023-12-04T09:04:29;101364.78;;;-2.23;100.00
17593;BME280;8915;51.760;14.300;2023-12-04T09:06:55;101362.84;;;-2.16;100.00
17593;BME280;8915;51.760;14.300;2023-12-04T09:09:22;101365.78;;;-2.13;100.00
17593;BME280;8915;51.760;14.300;2023-12-04T09:11:48;101369.06;;;-2.06;100.00
17593;BME280;8915;51.760;14.300;2023-12-04T09:14:15;101364.78;;;-2.00;100.00
17593;BME280;8915;51.760;14.300;2023-12-04T09:16:43;101371.91;;;-1.96;100.00
17593;BME280;8915;51.760;14.300;2023-12-04T09:19:09;101375.59;;;-1.92;100.00
17593;BME280;8915;51.760;14.300;2023-12-04T09:21:35;101390.47;;;-1.87;100.00
17593;BME280;8915;51.760;14.300;2023-12-04T09:24:02;101384.81;;;-1.84;100.00
17593;BME280;8915;51.760;14.300;2023-12-04T09:26:29;101382.34;;;-1.79;100.00
17593;BME280;8915;51.760;14.300;2023-12-04T09:28:55;101382.69;;;-1.76;100.00
17593;BME280;8915;51.760;14.300;2023-12-04T09:31:22;101382.78;;;-1.71;100.00
17593;BME280;8915;51.760;14.300;2023-12-04T09:33:50;101384.94;;;-1.68;100.00
17593;BME280;8915;51.760;14.300;2023-12-04T09:36:16;101384.50;;;-1.65;100.00
17593;BME280;8915;51.760;14.300;2023-12-04T09:38:43;101387.22;;;-1.60;100.00
17593;BME280;8915;51.760;14.300;2023-12-04T09:41:10;101380.09;;;-1.53;100.00
17593;BME280;8915;51.760;14.300;2023-12-04T09:43:39;101380.66;;;-1.51;100.00
17593;BME280;8915;51.760;14.300;2023-12-04T09:46:07;101382.91;;;-1.43;100.00
17593;BME280;8915;51.760;14.300;2023-12-04T09:48:33;101373.22;;;-1.36;100.00
17593;BME280;8915;51.760;14.300;2023-12-04T09:51:03;101369.97;;;-1.31;100.00
17593;BME280;8915;51.760;14.300;2023-12-04T09:53:30;101368.25;;;-1.26;100.00
17593;BME280;8915;51.760;14.300;2023-12-04T09:55:59;101367.56;;;-1.21;100.00
17593;BME280;8915;51.760;14.300;2023-12-04T09:58:27;101362.25;;;-1.15;100.00
17593;BME280;8915;51.760;14.300;2023-12-04T10:00:54;101359.75;;;-1.10;100.00
17593;BME280;8915;51.760;14.300;2023-12-04T10:03:21;101353.09;;;-1.06;100.00
17593;BME280;8915;51.760;14.300;2023-12-04T10:05:48;101353.53;;;-0.98;100.00
17593;BME280;8915;51.760;14.300;2023-12-04T10:08:16;101346.88;;;-0.93;100.00
17593;BME280;8915;51.760;14.300;2023-12-04T10:10:43;101345.94;;;-0.88;100.00
17593;BME280;8915;51.760;14.300;2023-12-04T10:13:09;101341.88;;;-0.83;100.00
17593;BME280;8915;51.760;14.300;2023-12-04T10:15:46;101334.72;;;-0.77;100.00
17593;BME280;8915;51.760;14.300;2023-12-04T10:18:24;101336.63;;;-0.72;100.00
17593;BME280;8915;51.760;14.300;2023-12-04T10:20:51;101339.53;;;-0.68;100.00
17593;BME280;8915;51.760;14.300;2023-12-04T10:23:20;101328.94;;;-0.67;100.00
17593;BME280;8915;51.760;14.300;2023-12-04T10:25:48;101331.06;;;-0.64;100.00
17593;BME280;8915;51.760;14.300;2023-12-04T10:28:16;101334.53;;;-0.58;100.00
17593;BME280;8915;51.760;14.300;2023-12-04T10:30:42;101330.44;;;-0.55;100.00
17593;BME280;8915;51.760;14.300;2023-12-04T10:33:09;101328.41;;;-0.52;100.00
17593;BME280;8915;51.760;14.300;2023-12-04T10:35:36;101322.28;;;-0.47;100.00
17593;BME280;8915;51.760;14.300;2023-12-04T10:38:04;101317.19;;;-0.42;100.00
17593;BME280;8915;51.760;14.300;2023-12-04T10:40:33;101310.00;;;-0.35;100.00
17593;BME280;8915;51.760;14.300;2023-12-04T10:43:10;101308.75;;;-0.32;100.00
17593;BME280;8915;51.760;14.300;2023-12-04T10:45:38;101312.47;;;-0.28;100.00
17593;BME280;8915;51.760;14.300;2023-12-04T10:48:06;101292.50;;;-0.28;100.00
17593;BME280;8915;51.760;14.300;2023-12-04T10:50:33;101302.97;;;-0.22;100.00
17593;BME280;8915;51.760;14.300;2023-12-04T10:53:01;101293.19;;;-0.16;100.00
17593;BME280;8915;51.760;14.300;2023-12-04T10:55:27;101287.03;;;-0.10;100.00
17593;BME280;8915;51.760;14.300;2023-12-04T10:57:55;101279.81;;;-0.08;100.00
17593;BME280;8915;51.760;14.300;2023-12-04T11:00:22;101271.53;;;-0.05;100.00
17593;BME280;8915;51.760;14.300;2023-12-04T11:02:49;101275.25;;;-0.01;100.00
17593;BME280;8915;51.760;14.300;2023-12-04T11:05:19;101269.81;;;0.01;100.00
17593;BME280;8915;51.760;14.300;2023-12-04T11:07:48;101268.28;;;0.05;100.00
17593;BME280;8915;51.760;14.300;2023-12-04T11:10:17;101259.25;;;0.07;100.00
17593;BME280;8915;51.760;14.300;2023-12-04T11:12:48;101268.63;;;0.08;100.00
17593;BME280;8915;51.760;14.300;2023-12-04T11:15:20;101259.56;;;0.11;100.00
17593;BME280;8915;51.760;14.300;2023-12-04T11:17:54;101260.34;;;0.11;100.00
17593;BME280;8915;51.760;14.300;2023-12-04T11:20:27;101255.44;;;0.15;100.00
17593;BME280;8915;51.760;14.300;2023-12-04T11:22:55;101252.38;;;0.18;100.00
17593;BME280;8915;51.760;14.300;2023-12-04T11:25:23;101247.25;;;0.23;100.00
17593;BME280;8915;51.760;14.300;2023-12-04T11:27:50;101243.63;;;0.24;100.00
17593;BME280;8915;51.760;14.300;2023-12-04T11:30:19;101248.88;;;0.29;100.00
17593;BME280;8915;51.760;14.300;2023-12-04T11:32:46;101242.66;;;0.30;100.00
17593;BME280;8915;51.760;14.300;2023-12-04T11:35:14;101235.97;;;0.34;100.00
17593;BME280;8915;51.760;14.300;2023-12-04T11:37:43;101233.84;;;0.31;100.00
17593;BME280;8915;51.760;14.300;2023-12-04T11:40:11;101231.56;;;0.34;100.00
17593;BME280;8915;51.760;14.300;2023-12-04T11:42:39;101239.81;;;0.31;100.00
17593;BME280;8915;51.760;14.300;2023-12-04T11:45:06;101227.94;;;0.35;100.00
17593;BME280;8915;51.760;14.300;2023-12-04T11:47:48;101219.63;;;0.38;100.00
17593;BME280;8915;51.760;14.300;2023-12-04T11:50:15;101220.72;;;0.42;99.39
17593;BME280;8915;51.760;14.300;2023-12-04T11:52:41;101208.53;;;0.43;98.62
17593;BME280;8915;51.760;14.300;2023-12-04T11:55:07;101218.75;;;0.49;98.47
17593;BME280;8915;51.760;14.300;2023-12-04T11:57:35;101211.72;;;0.50;96.98
17593;BME280;8915;51.760;14.300;2023-12-04T12:00:20;101208.66;;;0.53;94.31
17593;BME280;8915;51.760;14.300;2023-12-04T12:03:00;101199.03;;;0.53;94.59
17593;BME280;8915;51.760;14.300;2023-12-04T12:05:28;101201.16;;;0.56;95.16
17593;BME280;8915;51.760;14.300;2023-12-04T12:07:59;101202.72;;;0.57;94.05
17593;BME280;8915;51.760;14.300;2023-12-04T12:10:26;101198.31;;;0.58;92.83
17593;BME280;8915;51.760;14.300;2023-12-04T12:12:53;101187.91;;;0.58;91.80
17593;BME280;8915;51.760;14.300;2023-12-04T12:15:20;101193.88;;;0.58;91.92
17593;BME280;8915;51.760;14.300;2023-12-04T12:17:46;101182.72;;;0.58;90.88
17593;BME280;8915;51.760;14.300;2023-12-04T12:20:14;101176.97;;;0.56;90.03
17593;BME280;8915;51.760;14.300;2023-12-04T12:22:41;101177.47;;;0.53;88.47
17593;BME280;8915;51.760;14.300;2023-12-04T12:25:10;101164.25;;;0.54;89.08
17593;BME280;8915;51.760;14.300;2023-12-04T12:27:36;101163.44;;;0.54;87.85
17593;BME280;8915;51.760;14.300;2023-12-04T12:30:04;101162.41;;;0.55;88.47
17593;BME280;8915;51.760;14.300;2023-12-04T12:32:31;101155.88;;;0.52;87.75
17593;BME280;8915;51.760;14.300;2023-12-04T12:34:58;101155.13;;;0.52;86.88
17593;BME280;8915;51.760;14.300;2023-12-04T12:37:26;101151.72;;;0.51;87.07
17593;BME280;8915;51.760;14.300;2023-12-04T12:39:52;101145.50;;;0.52;86.86
17593;BME280;8915;51.760;14.300;2023-12-04T12:42:22;101145.25;;;0.54;89.16